Eastern Galaxy — DUCH — position and weather

sailwx.info

Track history (hours):
 
Tides and Currents Weather Stations Pressure Air Temp Water Temp Dewpoint Dewpoint Depression Visibility Wind Speed Wind Dir Waves Ship Positions

Eastern Galaxy

Last reported at 2014-Oct-27 13:28 UTC. Time now 2014-Oct-31 21:39 UTC.
Position N 35°03' E 139°29'.

Length 100 m; draft 5.6 m.

Type: Cargo ship. MMSI: 548829000.

Date/timePositionNaut miles runAvg speedWind from/ knotsBaromVisibWave heightAir tempDewpointWater temp
2014-Oct-27 13:28N 35°03' E 139°29'7 6.6
2014-Oct-27 12:26N 35°04' E 139°37'6 6.6
2014-Oct-27 11:33N 35°06' E 139°44'8 8.1
2014-Oct-27 10:33N 35°13' E 139°46'8 8.1
2014-Oct-27 09:33N 35°21' E 139°42'6 6.2
2014-Oct-27 08:31N 35°27' E 139°41'0 0.0
2014-Oct-27 07:31N 35°27' E 139°41'0 0.0
2014-Oct-27 06:31N 35°27' E 139°41'0 0.0
2014-Oct-27 05:31N 35°27' E 139°41'0 0.0
2014-Oct-27 04:31N 35°27' E 139°41'0 0.0
2014-Oct-27 03:31N 35°27' E 139°41'0 0.0
2014-Oct-27 02:31N 35°27' E 139°41'0 0.0
2014-Oct-27 01:31N 35°27' E 139°41'0 0.0
2014-Oct-27 00:31N 35°27' E 139°41'0 0.0
2014-Oct-26 23:31N 35°27' E 139°41'0 0.0
2014-Oct-26 22:31N 35°27' E 139°41'0 0.0
2014-Oct-26 21:31N 35°27' E 139°41'0 0.0
2014-Oct-26 20:31N 35°27' E 139°41'0 0.0
2014-Oct-26 19:31N 35°27' E 139°41'0 0.0
2014-Oct-26 18:31N 35°27' E 139°41'0 0.0
2014-Oct-26 17:31N 35°27' E 139°41'0 0.0
2014-Oct-26 16:31N 35°27' E 139°41'0 0.0
2014-Oct-26 15:31N 35°27' E 139°41'0 0.0
2014-Oct-26 14:31N 35°27' E 139°41'0 0.0
2014-Oct-26 13:31N 35°27' E 139°41'0 0.0
2014-Oct-26 12:31N 35°27' E 139°41'0 0.0
2014-Oct-26 11:31N 35°27' E 139°41'0 0.0
2014-Oct-26 10:31N 35°27' E 139°41'0 0.0
2014-Oct-26 09:31N 35°27' E 139°41'0 0.0
2014-Oct-26 08:31N 35°27' E 139°41'0 0.0
2014-Oct-26 07:31N 35°27' E 139°41'0 0.0
2014-Oct-26 06:31N 35°27' E 139°41'0 0.1
2014-Oct-26 05:34N 35°27' E 139°41'2 1.5
2014-Oct-26 04:31N 35°26' E 139°42'0 0.1
2014-Oct-26 03:31N 35°26' E 139°42'0 0.1
2014-Oct-26 02:31N 35°26' E 139°42'0 0.1
2014-Oct-26 01:31N 35°26' E 139°42'0 0.0
2014-Oct-26 00:31N 35°26' E 139°42'0 0.0
2014-Oct-25 23:31N 35°26' E 139°42'0 0.0
2014-Oct-25 22:31N 35°26' E 139°42'0 0.0
2014-Oct-25 21:31N 35°26' E 139°42'0 0.2
2014-Oct-25 20:33N 35°26' E 139°42'3 3.0
2014-Oct-25 19:33N 35°23' E 139°43'1110.8
2014-Oct-25 18:33N 35°12' E 139°47'1110.7
2014-Oct-25 17:33N 35°03' E 139°41'243 8.5
2014-Oct-24 13:04N 33°59' E 134°57'612.5
2014-Oct-24 12:34N 34°05' E 134°58'1010.1
2014-Oct-24 11:33N 34°15' E 134°58'1110.7
2014-Oct-24 10:34N 34°25' E 135°04'1211.9
2014-Oct-24 09:33N 34°33' E 135°15'1010.2
2014-Oct-24 08:34N 34°39' E 135°25'1 0.8
2014-Oct-24 07:27N 34°39' E 135°26'0 0.1
2014-Oct-24 06:33N 34°39' E 135°26'0 0.0
2014-Oct-24 05:33N 34°39' E 135°26'0 0.0
2014-Oct-24 04:03N 34°39' E 135°26'0 0.1
2014-Oct-24 03:33N 34°39' E 135°26'0 0.0
2014-Oct-24 02:33N 34°39' E 135°26'0 0.0
2014-Oct-24 01:33N 34°39' E 135°26'0 0.0
2014-Oct-24 00:33N 34°39' E 135°26'0 0.0
2014-Oct-23 23:27N 34°39' E 135°26'0 0.0
2014-Oct-23 22:27N 34°39' E 135°26'0 0.1
2014-Oct-23 21:33N 34°39' E 135°26'0 0.1
2014-Oct-23 20:33N 34°39' E 135°26'0 0.0
2014-Oct-23 19:33N 34°39' E 135°26'0 0.0
2014-Oct-23 18:33N 34°39' E 135°26'0 0.0
2014-Oct-23 17:33N 34°39' E 135°26'0 0.0
2014-Oct-23 16:33N 34°39' E 135°26'0 0.0
2014-Oct-23 15:27N 34°39' E 135°26'0 0.1
2014-Oct-23 14:33N 34°39' E 135°26'0 0.0
2014-Oct-23 13:33N 34°39' E 135°26'0 0.0
2014-Oct-23 12:33N 34°39' E 135°26'0 0.0
2014-Oct-23 11:27N 34°39' E 135°26'0 0.0
2014-Oct-23 10:33N 34°39' E 135°26'0 0.0
2014-Oct-23 09:27N 34°39' E 135°26'0 0.0
2014-Oct-23 08:33N 34°39' E 135°26'0 0.0
2014-Oct-23 07:33N 34°39' E 135°26'0 0.0
2014-Oct-23 06:33N 34°39' E 135°26'0 0.0
2014-Oct-23 05:27N 34°39' E 135°26'0 0.0
2014-Oct-23 04:33N 34°39' E 135°26'0 0.0
2014-Oct-23 03:27N 34°39' E 135°26'0 0.0
2014-Oct-23 02:33N 34°39' E 135°26'0 0.0
2014-Oct-23 01:27N 34°39' E 135°26'0 0.0
2014-Oct-23 00:27N 34°39' E 135°26'0 0.0
2014-Oct-22 23:33N 34°39' E 135°26'0 0.0
2014-Oct-22 22:33N 34°39' E 135°26'5 5.3
2014-Oct-22 21:33N 34°36' E 135°20'1312.8
2014-Oct-22 20:33N 34°35' E 135°05'1110.7
2014-Oct-22 19:32N 34°34' E 134°52'10911.0
2014-Oct-22 09:33N 34°06' E 132°44'7 0.3
2014-Oct-21 07:23N 33°59' E 132°43'  
Track history (hours):
 
Tides and Currents Weather Stations Pressure Air Temp Water Temp Dewpoint Dewpoint Depression Visibility Wind Speed Wind Dir Waves Ship Positions

Eastern Galaxy

Last reported at 2014-Oct-27 13:28 UTC. Time now 2014-Oct-31 21:39 UTC.
Position N 35°03' E 139°29'.

Length 100 m; draft 5.6 m.

Type: Cargo ship. MMSI: 548829000.

Date/timePositionNaut miles runAvg speedWind from/ knotsBaromVisibWave heightAir tempDewpointWater temp
2014-Oct-27 13:28N 35°03' E 139°29'7 6.6
2014-Oct-27 12:26N 35°04' E 139°37'6 6.6
2014-Oct-27 11:33N 35°06' E 139°44'8 8.1
2014-Oct-27 10:33N 35°13' E 139°46'8 8.1
2014-Oct-27 09:33N 35°21' E 139°42'6 6.2
2014-Oct-27 08:31N 35°27' E 139°41'0 0.0
2014-Oct-27 07:31N 35°27' E 139°41'0 0.0
2014-Oct-27 06:31N 35°27' E 139°41'0 0.0
2014-Oct-27 05:31N 35°27' E 139°41'0 0.0
2014-Oct-27 04:31N 35°27' E 139°41'0 0.0
2014-Oct-27 03:31N 35°27' E 139°41'0 0.0
2014-Oct-27 02:31N 35°27' E 139°41'0 0.0
2014-Oct-27 01:31N 35°27' E 139°41'0 0.0
2014-Oct-27 00:31N 35°27' E 139°41'0 0.0
2014-Oct-26 23:31N 35°27' E 139°41'0 0.0
2014-Oct-26 22:31N 35°27' E 139°41'0 0.0
2014-Oct-26 21:31N 35°27' E 139°41'0 0.0
2014-Oct-26 20:31N 35°27' E 139°41'0 0.0
2014-Oct-26 19:31N 35°27' E 139°41'0 0.0
2014-Oct-26 18:31N 35°27' E 139°41'0 0.0
2014-Oct-26 17:31N 35°27' E 139°41'0 0.0
2014-Oct-26 16:31N 35°27' E 139°41'0 0.0
2014-Oct-26 15:31N 35°27' E 139°41'0 0.0
2014-Oct-26 14:31N 35°27' E 139°41'0 0.0
2014-Oct-26 13:31N 35°27' E 139°41'0 0.0
2014-Oct-26 12:31N 35°27' E 139°41'0 0.0
2014-Oct-26 11:31N 35°27' E 139°41'0 0.0
2014-Oct-26 10:31N 35°27' E 139°41'0 0.0
2014-Oct-26 09:31N 35°27' E 139°41'0 0.0
2014-Oct-26 08:31N 35°27' E 139°41'0 0.0
2014-Oct-26 07:31N 35°27' E 139°41'0 0.0
2014-Oct-26 06:31N 35°27' E 139°41'0 0.1
2014-Oct-26 05:34N 35°27' E 139°41'2 1.5
2014-Oct-26 04:31N 35°26' E 139°42'0 0.1
2014-Oct-26 03:31N 35°26' E 139°42'0 0.1
2014-Oct-26 02:31N 35°26' E 139°42'0 0.1
2014-Oct-26 01:31N 35°26' E 139°42'0 0.0
2014-Oct-26 00:31N 35°26' E 139°42'0 0.0
2014-Oct-25 23:31N 35°26' E 139°42'0 0.0
2014-Oct-25 22:31N 35°26' E 139°42'0 0.0
2014-Oct-25 21:31N 35°26' E 139°42'0 0.2
2014-Oct-25 20:33N 35°26' E 139°42'3 3.0
2014-Oct-25 19:33N 35°23' E 139°43'1110.8
2014-Oct-25 18:33N 35°12' E 139°47'1110.7
2014-Oct-25 17:33N 35°03' E 139°41'243 8.5
2014-Oct-24 13:04N 33°59' E 134°57'612.5
2014-Oct-24 12:34N 34°05' E 134°58'1010.1
2014-Oct-24 11:33N 34°15' E 134°58'1110.7
2014-Oct-24 10:34N 34°25' E 135°04'1211.9
2014-Oct-24 09:33N 34°33' E 135°15'1010.2
2014-Oct-24 08:34N 34°39' E 135°25'1 0.8
2014-Oct-24 07:27N 34°39' E 135°26'0 0.1
2014-Oct-24 06:33N 34°39' E 135°26'0 0.0
2014-Oct-24 05:33N 34°39' E 135°26'0 0.0
2014-Oct-24 04:03N 34°39' E 135°26'0 0.1
2014-Oct-24 03:33N 34°39' E 135°26'0 0.0
2014-Oct-24 02:33N 34°39' E 135°26'0 0.0
2014-Oct-24 01:33N 34°39' E 135°26'0 0.0
2014-Oct-24 00:33N 34°39' E 135°26'0 0.0
2014-Oct-23 23:27N 34°39' E 135°26'0 0.0
2014-Oct-23 22:27N 34°39' E 135°26'0 0.1
2014-Oct-23 21:33N 34°39' E 135°26'0 0.1
2014-Oct-23 20:33N 34°39' E 135°26'0 0.0
2014-Oct-23 19:33N 34°39' E 135°26'0 0.0
2014-Oct-23 18:33N 34°39' E 135°26'0 0.0
2014-Oct-23 17:33N 34°39' E 135°26'0 0.0
2014-Oct-23 16:33N 34°39' E 135°26'0 0.0
2014-Oct-23 15:27N 34°39' E 135°26'0 0.1
2014-Oct-23 14:33N 34°39' E 135°26'0 0.0
2014-Oct-23 13:33N 34°39' E 135°26'0 0.0
2014-Oct-23 12:33N 34°39' E 135°26'0 0.0
2014-Oct-23 11:27N 34°39' E 135°26'0 0.0
2014-Oct-23 10:33N 34°39' E 135°26'0 0.0
2014-Oct-23 09:27N 34°39' E 135°26'0 0.0
2014-Oct-23 08:33N 34°39' E 135°26'0 0.0
2014-Oct-23 07:33N 34°39' E 135°26'0 0.0
2014-Oct-23 06:33N 34°39' E 135°26'0 0.0
2014-Oct-23 05:27N 34°39' E 135°26'0 0.0
2014-Oct-23 04:33N 34°39' E 135°26'0 0.0
2014-Oct-23 03:27N 34°39' E 135°26'0 0.0
2014-Oct-23 02:33N 34°39' E 135°26'0 0.0
2014-Oct-23 01:27N 34°39' E 135°26'0 0.0
2014-Oct-23 00:27N 34°39' E 135°26'0 0.0
2014-Oct-22 23:33N 34°39' E 135°26'0 0.0
2014-Oct-22 22:33N 34°39' E 135°26'5 5.3
2014-Oct-22 21:33N 34°36' E 135°20'1312.8
2014-Oct-22 20:33N 34°35' E 135°05'1110.7
2014-Oct-22 19:32N 34°34' E 134°52'10911.0
2014-Oct-22 09:33N 34°06' E 132°44'7 0.3
2014-Oct-21 07:23N 33°59' E 132°43'  

Dump ship's entire track history